sensor_id;sensor_type;location;lat;lon;timestamp;temperature;humidity
46159;DHT22;31888;44.512;26.104;2023-11-18T00:00:09;7.80;99.90
46159;DHT22;31888;44.512;26.104;2023-11-18T00:02:36;7.80;99.90
46159;DHT22;31888;44.512;26.104;2023-11-18T00:05:00;7.80;99.90
46159;DHT22;31888;44.512;26.104;2023-11-18T00:07:24;7.80;99.90
46159;DHT22;31888;44.512;26.104;2023-11-18T00:09:48;7.80;99.90
46159;DHT22;31888;44.512;26.104;2023-11-18T00:12:12;7.80;99.90
46159;DHT22;31888;44.512;26.104;2023-11-18T00:14:38;7.80;99.90
46159;DHT22;31888;44.512;26.104;2023-11-18T00:17:03;7.80;99.90
46159;DHT22;31888;44.512;26.104;2023-11-18T00:19:27;7.80;99.90
46159;DHT22;31888;44.512;26.104;2023-11-18T00:21:51;7.80;99.90
46159;DHT22;31888;44.512;26.104;2023-11-18T00:24:16;7.80;99.90
46159;DHT22;31888;44.512;26.104;2023-11-18T00:26:39;7.80;99.90
46159;DHT22;31888;44.512;26.104;2023-11-18T00:29:04;7.80;99.90
46159;DHT22;31888;44.512;26.104;2023-11-18T00:31:29;7.80;99.90
46159;DHT22;31888;44.512;26.104;2023-11-18T00:33:53;7.70;99.90
46159;DHT22;31888;44.512;26.104;2023-11-18T00:36:17;7.80;99.90
46159;DHT22;31888;44.512;26.104;2023-11-18T00:38:41;7.70;99.90
46159;DHT22;31888;44.512;26.104;2023-11-18T00:41:06;7.70;99.90
46159;DHT22;31888;44.512;26.104;2023-11-18T00:43:30;7.70;99.90
46159;DHT22;31888;44.512;26.104;2023-11-18T00:45:54;7.70;99.90
46159;DHT22;31888;44.512;26.104;2023-11-18T00:48:21;7.70;99.90
46159;DHT22;31888;44.512;26.104;2023-11-18T00:50:46;7.70;99.90
46159;DHT22;31888;44.512;26.104;2023-11-18T00:53:10;7.60;99.90
46159;DHT22;31888;44.512;26.104;2023-11-18T00:55:34;7.60;99.90
46159;DHT22;31888;44.512;26.104;2023-11-18T00:57:58;7.60;99.90
46159;DHT22;31888;44.512;26.104;2023-11-18T01:00:22;7.60;99.90
46159;DHT22;31888;44.512;26.104;2023-11-18T01:02:49;7.50;99.90
46159;DHT22;31888;44.512;26.104;2023-11-18T01:05:15;7.50;99.90
46159;DHT22;31888;44.512;26.104;2023-11-18T01:07:39;7.50;99.90
46159;DHT22;31888;44.512;26.104;2023-11-18T01:10:04;7.50;99.90
46159;DHT22;31888;44.512;26.104;2023-11-18T01:12:29;7.40;99.90
46159;DHT22;31888;44.512;26.104;2023-11-18T01:14:53;7.40;99.90
46159;DHT22;31888;44.512;26.104;2023-11-18T01:17:16;7.40;99.90
46159;DHT22;31888;44.512;26.104;2023-11-18T01:19:40;7.40;99.90
46159;DHT22;31888;44.512;26.104;2023-11-18T01:22:07;7.50;99.90
46159;DHT22;31888;44.512;26.104;2023-11-18T01:24:31;7.50;99.90
46159;DHT22;31888;44.512;26.104;2023-11-18T01:26:55;7.50;99.90
46159;DHT22;31888;44.512;26.104;2023-11-18T01:29:19;7.50;99.90
46159;DHT22;31888;44.512;26.104;2023-11-18T01:31:44;7.50;99.90
46159;DHT22;31888;44.512;26.104;2023-11-18T01:34:14;7.50;99.90
46159;DHT22;31888;44.512;26.104;2023-11-18T01:36:39;7.50;99.90
46159;DHT22;31888;44.512;26.104;2023-11-18T01:39:04;7.50;99.90
46159;DHT22;31888;44.512;26.104;2023-11-18T01:41:30;7.50;99.90
46159;DHT22;31888;44.512;26.104;2023-11-18T01:43:55;7.50;99.90
46159;DHT22;31888;44.512;26.104;2023-11-18T01:46:19;7.50;99.90
46159;DHT22;31888;44.512;26.104;2023-11-18T01:48:46;7.50;99.90
46159;DHT22;31888;44.512;26.104;2023-11-18T01:51:10;7.50;99.90
46159;DHT22;31888;44.512;26.104;2023-11-18T01:53:36;7.50;99.90
46159;DHT22;31888;44.512;26.104;2023-11-18T01:56:02;7.50;99.90
46159;DHT22;31888;44.512;26.104;2023-11-18T01:58:28;7.50;99.90
46159;DHT22;31888;44.512;26.104;2023-11-18T02:00:53;7.50;99.90
46159;DHT22;31888;44.512;26.104;2023-11-18T02:03:18;7.50;99.90
46159;DHT22;31888;44.512;26.104;2023-11-18T02:05:43;7.50;99.90
46159;DHT22;31888;44.512;26.104;2023-11-18T02:08:07;7.50;99.90
46159;DHT22;31888;44.512;26.104;2023-11-18T02:10:31;7.50;99.90
46159;DHT22;31888;44.512;26.104;2023-11-18T02:13:01;7.50;99.90
46159;DHT22;31888;44.512;26.104;2023-11-18T02:15:30;7.50;99.90
46159;DHT22;31888;44.512;26.104;2023-11-18T02:17:55;7.50;99.90
46159;DHT22;31888;44.512;26.104;2023-11-18T02:20:21;7.60;99.90
46159;DHT22;31888;44.512;26.104;2023-11-18T02:22:46;7.50;99.90
46159;DHT22;31888;44.512;26.104;2023-11-18T02:25:15;7.60;99.90
46159;DHT22;31888;44.512;26.104;2023-11-18T02:27:42;7.60;99.90
46159;DHT22;31888;44.512;26.104;2023-11-18T02:30:07;7.60;99.90
46159;DHT22;31888;44.512;26.104;2023-11-18T02:32:39;7.60;99.90
46159;DHT22;31888;44.512;26.104;2023-11-18T02:35:10;7.60;99.90
46159;DHT22;31888;44.512;26.104;2023-11-18T02:37:37;7.60;99.90
46159;DHT22;31888;44.512;26.104;2023-11-18T02:40:06;7.60;99.90
46159;DHT22;31888;44.512;26.104;2023-11-18T02:42:35;7.60;99.90
46159;DHT22;31888;44.512;26.104;2023-11-18T02:45:02;7.60;99.90
46159;DHT22;31888;44.512;26.104;2023-11-18T02:47:26;7.60;99.90
46159;DHT22;31888;44.512;26.104;2023-11-18T02:49:54;7.60;99.90
46159;DHT22;31888;44.512;26.104;2023-11-18T02:52:18;7.50;99.90
46159;DHT22;31888;44.512;26.104;2023-11-18T02:54:43;7.40;99.90
46159;DHT22;31888;44.512;26.104;2023-11-18T02:57:07;7.40;99.90
46159;DHT22;31888;44.512;26.104;2023-11-18T02:59:31;7.30;99.90
46159;DHT22;31888;44.512;26.104;2023-11-18T03:01:56;7.20;99.90
46159;DHT22;31888;44.512;26.104;2023-11-18T03:04:20;7.10;99.90
46159;DHT22;31888;44.512;26.104;2023-11-18T03:06:46;7.10;99.90
46159;DHT22;31888;44.512;26.104;2023-11-18T03:09:10;7.00;99.90
46159;DHT22;31888;44.512;26.104;2023-11-18T03:11:36;7.00;99.90
46159;DHT22;31888;44.512;26.104;2023-11-18T03:14:00;7.00;99.90
46159;DHT22;31888;44.512;26.104;2023-11-18T03:16:23;6.90;99.90
46159;DHT22;31888;44.512;26.104;2023-11-18T03:18:49;6.90;99.90
46159;DHT22;31888;44.512;26.104;2023-11-18T03:21:13;6.90;99.90
46159;DHT22;31888;44.512;26.104;2023-11-18T03:23:38;6.90;99.90
46159;DHT22;31888;44.512;26.104;2023-11-18T03:26:03;6.90;99.90
46159;DHT22;31888;44.512;26.104;2023-11-18T03:28:28;7.00;99.90
46159;DHT22;31888;44.512;26.104;2023-11-18T03:30:52;7.00;99.90
46159;DHT22;31888;44.512;26.104;2023-11-18T03:33:17;7.10;99.90
46159;DHT22;31888;44.512;26.104;2023-11-18T03:35:43;7.10;99.90
46159;DHT22;31888;44.512;26.104;2023-11-18T03:38:06;7.10;99.90
46159;DHT22;31888;44.512;26.104;2023-11-18T03:40:30;7.20;99.90
46159;DHT22;31888;44.512;26.104;2023-11-18T03:42:55;7.20;99.90
46159;DHT22;31888;44.512;26.104;2023-11-18T03:45:21;7.20;99.90
46159;DHT22;31888;44.512;26.104;2023-11-18T03:47:45;7.20;99.90
46159;DHT22;31888;44.512;26.104;2023-11-18T03:50:10;7.20;99.90
46159;DHT22;31888;44.512;26.104;2023-11-18T03:52:37;7.20;99.90
46159;DHT22;31888;44.512;26.104;2023-11-18T03:55:03;7.30;99.90
46159;DHT22;31888;44.512;26.104;2023-11-18T03:57:27;7.20;99.90
46159;DHT22;31888;44.512;26.104;2023-11-18T03:59:52;7.20;99.90
46159;DHT22;31888;44.512;26.104;2023-11-18T04:02:16;7.20;99.90
46159;DHT22;31888;44.512;26.104;2023-11-18T04:04:40;7.20;99.90
46159;DHT22;31888;44.512;26.104;2023-11-18T04:07:04;7.20;99.90
46159;DHT22;31888;44.512;26.104;2023-11-18T04:09:30;7.20;99.90
46159;DHT22;31888;44.512;26.104;2023-11-18T04:11:54;7.20;99.90
46159;DHT22;31888;44.512;26.104;2023-11-18T04:14:18;7.20;99.90
46159;DHT22;31888;44.512;26.104;2023-11-18T04:16:45;7.20;99.90
46159;DHT22;31888;44.512;26.104;2023-11-18T04:19:09;7.20;99.90
46159;DHT22;31888;44.512;26.104;2023-11-18T04:21:32;7.30;99.90
46159;DHT22;31888;44.512;26.104;2023-11-18T04:23:57;7.30;99.90
46159;DHT22;31888;44.512;26.104;2023-11-18T04:26:22;7.30;99.90
46159;DHT22;31888;44.512;26.104;2023-11-18T04:28:47;7.30;99.90
46159;DHT22;31888;44.512;26.104;2023-11-18T04:31:12;7.30;99.90
46159;DHT22;31888;44.512;26.104;2023-11-18T04:33:36;7.30;99.90
46159;DHT22;31888;44.512;26.104;2023-11-18T04:36:03;7.30;99.90
46159;DHT22;31888;44.512;26.104;2023-11-18T04:38:28;7.30;99.90
46159;DHT22;31888;44.512;26.104;2023-11-18T04:40:52;7.30;99.90
46159;DHT22;31888;44.512;26.104;2023-11-18T04:43:18;7.40;99.90
46159;DHT22;31888;44.512;26.104;2023-11-18T04:45:52;7.40;99.90
46159;DHT22;31888;44.512;26.104;2023-11-18T04:48:17;7.30;99.90
46159;DHT22;31888;44.512;26.104;2023-11-18T04:50:44;7.30;99.90
46159;DHT22;31888;44.512;26.104;2023-11-18T04:53:08;7.30;99.90
46159;DHT22;31888;44.512;26.104;2023-11-18T04:55:33;7.30;99.90
46159;DHT22;31888;44.512;26.104;2023-11-18T04:57:57;7.30;99.90
46159;DHT22;31888;44.512;26.104;2023-11-18T05:00:23;7.30;99.90
46159;DHT22;31888;44.512;26.104;2023-11-18T05:02:47;7.30;99.90
46159;DHT22;31888;44.512;26.104;2023-11-18T05:05:12;7.30;99.90
46159;DHT22;31888;44.512;26.104;2023-11-18T05:07:37;7.30;99.90
46159;DHT22;31888;44.512;26.104;2023-11-18T05:10:01;7.30;99.90
46159;DHT22;31888;44.512;26.104;2023-11-18T05:12:26;7.30;99.90
46159;DHT22;31888;44.512;26.104;2023-11-18T05:14:52;7.30;99.90
46159;DHT22;31888;44.512;26.104;2023-11-18T05:17:18;7.30;99.90
46159;DHT22;31888;44.512;26.104;2023-11-18T05:19:43;7.30;99.90
46159;DHT22;31888;44.512;26.104;2023-11-18T05:22:06;7.30;99.90
46159;DHT22;31888;44.512;26.104;2023-11-18T05:24:30;7.30;99.90
46159;DHT22;31888;44.512;26.104;2023-11-18T05:26:54;7.30;99.90
46159;DHT22;31888;44.512;26.104;2023-11-18T05:29:18;7.30;99.90
46159;DHT22;31888;44.512;26.104;2023-11-18T05:31:43;7.30;99.90
46159;DHT22;31888;44.512;26.104;2023-11-18T05:34:09;7.30;99.90
46159;DHT22;31888;44.512;26.104;2023-11-18T05:36:34;7.30;99.90
46159;DHT22;31888;44.512;26.104;2023-11-18T05:39:00;7.30;99.90
46159;DHT22;31888;44.512;26.104;2023-11-18T05:41:24;7.20;99.90
46159;DHT22;31888;44.512;26.104;2023-11-18T05:43:53;7.20;99.90
46159;DHT22;31888;44.512;26.104;2023-11-18T05:46:19;7.20;99.90
46159;DHT22;31888;44.512;26.104;2023-11-18T05:48:46;7.20;99.90
46159;DHT22;31888;44.512;26.104;2023-11-18T05:51:12;7.20;99.90
46159;DHT22;31888;44.512;26.104;2023-11-18T05:53:39;7.20;99.90
46159;DHT22;31888;44.512;26.104;2023-11-18T05:56:05;7.30;99.90
46159;DHT22;31888;44.512;26.104;2023-11-18T05:58:29;7.20;99.90
46159;DHT22;31888;44.512;26.104;2023-11-18T06:00:53;7.20;99.90
46159;DHT22;31888;44.512;26.104;2023-11-18T06:03:17;7.20;99.90
46159;DHT22;31888;44.512;26.104;2023-11-18T06:05:42;7.20;99.90
46159;DHT22;31888;44.512;26.104;2023-11-18T06:08:07;7.30;99.90
46159;DHT22;31888;44.512;26.104;2023-11-18T06:10:31;7.30;99.90
46159;DHT22;31888;44.512;26.104;2023-11-18T06:12:55;7.30;99.90
46159;DHT22;31888;44.512;26.104;2023-11-18T06:15:20;7.30;99.90
46159;DHT22;31888;44.512;26.104;2023-11-18T06:17:45;7.30;99.90
46159;DHT22;31888;44.512;26.104;2023-11-18T06:20:10;7.30;99.90
46159;DHT22;31888;44.512;26.104;2023-11-18T06:22:36;7.30;99.90
46159;DHT22;31888;44.512;26.104;2023-11-18T06:25:03;7.40;99.90
46159;DHT22;31888;44.512;26.104;2023-11-18T06:27:30;7.50;99.90
46159;DHT22;31888;44.512;26.104;2023-11-18T06:29:54;7.40;99.90
46159;DHT22;31888;44.512;26.104;2023-11-18T06:32:18;7.50;99.90
46159;DHT22;31888;44.512;26.104;2023-11-18T06:34:42;7.50;99.90
46159;DHT22;31888;44.512;26.104;2023-11-18T06:37:06;7.60;99.90
46159;DHT22;31888;44.512;26.104;2023-11-18T06:39:30;7.60;99.90
46159;DHT22;31888;44.512;26.104;2023-11-18T06:41:58;7.60;99.90
46159;DHT22;31888;44.512;26.104;2023-11-18T06:44:23;7.70;99.90
46159;DHT22;31888;44.512;26.104;2023-11-18T06:46:47;7.70;99.90
46159;DHT22;31888;44.512;26.104;2023-11-18T06:49:13;7.70;99.90
46159;DHT22;31888;44.512;26.104;2023-11-18T06:51:38;7.70;99.90
46159;DHT22;31888;44.512;26.104;2023-11-18T06:54:03;7.80;99.90
46159;DHT22;31888;44.512;26.104;2023-11-18T06:56:32;7.80;99.90
46159;DHT22;31888;44.512;26.104;2023-11-18T06:58:59;7.80;99.90
46159;DHT22;31888;44.512;26.104;2023-11-18T07:01:23;7.80;99.90
46159;DHT22;31888;44.512;26.104;2023-11-18T07:03:47;7.80;99.90
46159;DHT22;31888;44.512;26.104;2023-11-18T07:06:17;7.90;99.90
46159;DHT22;31888;44.512;26.104;2023-11-18T07:08:45;7.90;99.90
46159;DHT22;31888;44.512;26.104;2023-11-18T07:11:11;7.90;99.90
46159;DHT22;31888;44.512;26.104;2023-11-18T07:13:36;7.90;99.90
46159;DHT22;31888;44.512;26.104;2023-11-18T07:16:03;7.90;99.90
46159;DHT22;31888;44.512;26.104;2023-11-18T07:18:28;8.00;99.90
46159;DHT22;31888;44.512;26.104;2023-11-18T07:20:56;7.90;99.90
46159;DHT22;31888;44.512;26.104;2023-11-18T07:23:22;8.00;99.90
46159;DHT22;31888;44.512;26.104;2023-11-18T07:25:46;8.00;99.90
46159;DHT22;31888;44.512;26.104;2023-11-18T07:28:10;8.00;99.90
46159;DHT22;31888;44.512;26.104;2023-11-18T07:30:37;8.00;99.90
46159;DHT22;31888;44.512;26.104;2023-11-18T07:33:02;8.00;99.90
46159;DHT22;31888;44.512;26.104;2023-11-18T07:35:28;8.00;99.90
46159;DHT22;31888;44.512;26.104;2023-11-18T07:37:52;8.00;99.90
46159;DHT22;31888;44.512;26.104;2023-11-18T07:40:16;8.00;99.90
46159;DHT22;31888;44.512;26.104;2023-11-18T07:42:50;8.10;99.90
46159;DHT22;31888;44.512;26.104;2023-11-18T07:45:18;8.10;99.90
46159;DHT22;31888;44.512;26.104;2023-11-18T07:47:42;8.20;99.90
46159;DHT22;31888;44.512;26.104;2023-11-18T07:50:07;8.20;99.90
46159;DHT22;31888;44.512;26.104;2023-11-18T07:52:35;8.30;99.90
46159;DHT22;31888;44.512;26.104;2023-11-18T07:54:59;8.40;99.90
46159;DHT22;31888;44.512;26.104;2023-11-18T07:57:23;8.40;99.90
46159;DHT22;31888;44.512;26.104;2023-11-18T07:59:47;8.50;99.90
46159;DHT22;31888;44.512;26.104;2023-11-18T08:02:11;8.50;99.90
46159;DHT22;31888;44.512;26.104;2023-11-18T08:04:37;8.50;99.90
46159;DHT22;31888;44.512;26.104;2023-11-18T08:07:02;8.60;99.90
46159;DHT22;31888;44.512;26.104;2023-11-18T08:09:27;8.60;99.90
46159;DHT22;31888;44.512;26.104;2023-11-18T08:11:53;8.60;99.90
46159;DHT22;31888;44.512;26.104;2023-11-18T08:14:18;8.60;99.90
46159;DHT22;31888;44.512;26.104;2023-11-18T08:16:42;8.60;99.90
46159;DHT22;31888;44.512;26.104;2023-11-18T08:19:06;8.60;99.90
46159;DHT22;31888;44.512;26.104;2023-11-18T08:21:31;8.60;99.90
46159;DHT22;31888;44.512;26.104;2023-11-18T08:23:57;8.70;99.90
46159;DHT22;31888;44.512;26.104;2023-11-18T08:26:22;8.60;99.90
46159;DHT22;31888;44.512;26.104;2023-11-18T08:28:46;8.50;99.90
46159;DHT22;31888;44.512;26.104;2023-11-18T08:31:13;8.50;99.90
46159;DHT22;31888;44.512;26.104;2023-11-18T08:33:38;8.50;99.90
46159;DHT22;31888;44.512;26.104;2023-11-18T08:36:02;8.40;99.90
46159;DHT22;31888;44.512;26.104;2023-11-18T08:38:26;8.50;99.90
46159;DHT22;31888;44.512;26.104;2023-11-18T08:40:51;8.50;99.90
46159;DHT22;31888;44.512;26.104;2023-11-18T08:43:15;8.40;99.90
46159;DHT22;31888;44.512;26.104;2023-11-18T08:45:40;8.40;99.90
46159;DHT22;31888;44.512;26.104;2023-11-18T08:48:05;8.50;99.90
46159;DHT22;31888;44.512;26.104;2023-11-18T08:50:31;8.50;99.90
46159;DHT22;31888;44.512;26.104;2023-11-18T08:52:56;8.50;99.90
46159;DHT22;31888;44.512;26.104;2023-11-18T08:55:21;8.50;99.90
46159;DHT22;31888;44.512;26.104;2023-11-18T08:57:51;8.50;99.90
46159;DHT22;31888;44.512;26.104;2023-11-18T09:00:27;8.60;99.90
46159;DHT22;31888;44.512;26.104;2023-11-18T09:03:09;8.60;99.90
46159;DHT22;31888;44.512;26.104;2023-11-18T09:05:40;8.60;99.90
46159;DHT22;31888;44.512;26.104;2023-11-18T09:08:05;8.70;99.90
46159;DHT22;31888;44.512;26.104;2023-11-18T09:10:29;8.80;99.90
46159;DHT22;31888;44.512;26.104;2023-11-18T09:12:54;8.80;99.90
46159;DHT22;31888;44.512;26.104;2023-11-18T09:15:20;8.80;99.90
46159;DHT22;31888;44.512;26.104;2023-11-18T09:17:45;8.90;99.90
46159;DHT22;31888;44.512;26.104;2023-11-18T09:20:10;8.90;99.90
46159;DHT22;31888;44.512;26.104;2023-11-18T09:22:34;8.90;99.90
46159;DHT22;31888;44.512;26.104;2023-11-18T09:24:58;9.00;99.90
46159;DHT22;31888;44.512;26.104;2023-11-18T09:27:22;9.00;99.90
46159;DHT22;31888;44.512;26.104;2023-11-18T09:29:47;9.10;99.90
46159;DHT22;31888;44.512;26.104;2023-11-18T09:32:12;9.10;99.90
46159;DHT22;31888;44.512;26.104;2023-11-18T09:34:37;9.10;99.90
46159;DHT22;31888;44.512;26.104;2023-11-18T09:37:03;9.10;99.90
46159;DHT22;31888;44.512;26.104;2023-11-18T09:39:27;9.10;99.90
46159;DHT22;31888;44.512;26.104;2023-11-18T09:42:00;9.20;99.90
46159;DHT22;31888;44.512;26.104;2023-11-18T09:44:26;9.10;99.90
46159;DHT22;31888;44.512;26.104;2023-11-18T09:46:57;9.10;99.90
46159;DHT22;31888;44.512;26.104;2023-11-18T09:49:27;9.10;99.90
46159;DHT22;31888;44.512;26.104;2023-11-18T09:51:57;9.10;99.90
46159;DHT22;31888;44.512;26.104;2023-11-18T09:54:27;9.10;99.90
46159;DHT22;31888;44.512;26.104;2023-11-18T09:56:56;9.10;99.90
46159;DHT22;31888;44.512;26.104;2023-11-18T09:59:32;9.00;99.90
46159;DHT22;31888;44.512;26.104;2023-11-18T10:01:59;9.00;99.90
46159;DHT22;31888;44.512;26.104;2023-11-18T10:04:25;9.00;99.90
46159;DHT22;31888;44.512;26.104;2023-11-18T10:06:51;9.00;99.90
46159;DHT22;31888;44.512;26.104;2023-11-18T10:09:16;9.00;99.90
46159;DHT22;31888;44.512;26.104;2023-11-18T10:11:45;9.00;99.90
46159;DHT22;31888;44.512;26.104;2023-11-18T10:14:10;9.10;99.90
46159;DHT22;31888;44.512;26.104;2023-11-18T10:16:38;9.10;99.90
46159;DHT22;31888;44.512;26.104;2023-11-18T10:19:04;9.10;99.90
46159;DHT22;31888;44.512;26.104;2023-11-18T10:21:35;9.10;99.90
46159;DHT22;31888;44.512;26.104;2023-11-18T10:24:02;9.10;99.90
46159;DHT22;31888;44.512;26.104;2023-11-18T10:26:28;9.10;99.90
46159;DHT22;31888;44.512;26.104;2023-11-18T10:28:53;9.20;99.90
46159;DHT22;31888;44.512;26.104;2023-11-18T10:31:19;9.20;99.90
46159;DHT22;31888;44.512;26.104;2023-11-18T10:33:43;9.10;99.90
46159;DHT22;31888;44.512;26.104;2023-11-18T10:36:18;9.20;99.90
46159;DHT22;31888;44.512;26.104;2023-11-18T10:38:48;9.20;99.90
46159;DHT22;31888;44.512;26.104;2023-11-18T10:41:13;9.10;99.90
46159;DHT22;31888;44.512;26.104;2023-11-18T10:43:39;9.10;99.90
46159;DHT22;31888;44.512;26.104;2023-11-18T10:46:05;9.10;99.90
46159;DHT22;31888;44.512;26.104;2023-11-18T10:48:35;9.00;99.90
46159;DHT22;31888;44.512;26.104;2023-11-18T10:50:59;9.00;99.90
46159;DHT22;31888;44.512;26.104;2023-11-18T10:53:25;9.10;99.90
46159;DHT22;31888;44.512;26.104;2023-11-18T10:55:50;9.10;99.90
46159;DHT22;31888;44.512;26.104;2023-11-18T10:58:14;9.20;99.90
46159;DHT22;31888;44.512;26.104;2023-11-18T11:00:47;9.20;99.90
46159;DHT22;31888;44.512;26.104;2023-11-18T11:03:12;9.30;99.90
46159;DHT22;31888;44.512;26.104;2023-11-18T11:05:37;9.30;99.90
46159;DHT22;31888;44.512;26.104;2023-11-18T11:08:04;9.40;99.90
46159;DHT22;31888;44.512;26.104;2023-11-18T11:10:31;9.30;99.90
46159;DHT22;31888;44.512;26.104;2023-11-18T11:12:55;9.40;99.90
46159;DHT22;31888;44.512;26.104;2023-11-18T11:15:29;9.50;99.90
46159;DHT22;31888;44.512;26.104;2023-11-18T11:18:20;9.60;99.90
46159;DHT22;31888;44.512;26.104;2023-11-18T11:20:59;9.60;99.90
46159;DHT22;31888;44.512;26.104;2023-11-18T11:23:32;9.20;99.90
46159;DHT22;31888;44.512;26.104;2023-11-18T11:26:16;9.00;99.90
46159;DHT22;31888;44.512;26.104;2023-11-18T11:28:50;8.70;99.90
46159;DHT22;31888;44.512;26.104;2023-11-18T11:31:21;8.50;99.90
46159;DHT22;31888;44.512;26.104;2023-11-18T11:33:54;8.40;99.90
46159;DHT22;31888;44.512;26.104;2023-11-18T11:36:21;8.30;99.90
46159;DHT22;31888;44.512;26.104;2023-11-18T11:38:50;8.30;99.90
46159;DHT22;31888;44.512;26.104;2023-11-18T11:41:21;8.30;99.90
46159;DHT22;31888;44.512;26.104;2023-11-18T11:43:49;8.20;99.90
46159;DHT22;31888;44.512;26.104;2023-11-18T11:46:18;8.10;99.90
46159;DHT22;31888;44.512;26.104;2023-11-18T11:48:46;8.20;99.90
46159;DHT22;31888;44.512;26.104;2023-11-18T11:51:21;8.20;99.90
46159;DHT22;31888;44.512;26.104;2023-11-18T11:53:53;8.20;99.90
46159;DHT22;31888;44.512;26.104;2023-11-18T11:56:20;8.20;99.90
46159;DHT22;31888;44.512;26.104;2023-11-18T11:59:01;8.20;99.90
46159;DHT22;31888;44.512;26.104;2023-11-18T12:01:26;8.20;99.90
46159;DHT22;31888;44.512;26.104;2023-11-18T12:03:56;8.30;99.90
46159;DHT22;31888;44.512;26.104;2023-11-18T12:06:29;8.20;99.90
46159;DHT22;31888;44.512;26.104;2023-11-18T12:08:56;8.30;99.90
46159;DHT22;31888;44.512;26.104;2023-11-18T12:11:22;8.20;99.90
46159;DHT22;31888;44.512;26.104;2023-11-18T12:14:00;8.30;99.90
46159;DHT22;31888;44.512;26.104;2023-11-18T12:19:31;8.30;99.90
46159;DHT22;31888;44.512;26.104;2023-11-18T12:21:59;8.20;99.90
46159;DHT22;31888;44.512;26.104;2023-11-18T12:24:30;8.20;99.90
46159;DHT22;31888;44.512;26.104;2023-11-18T12:26:59;8.20;99.90
46159;DHT22;31888;44.512;26.104;2023-11-18T12:29:32;8.20;99.90
46159;DHT22;31888;44.512;26.104;2023-11-18T12:31:56;8.10;99.90
46159;DHT22;31888;44.512;26.104;2023-11-18T12:34:21;8.10;99.90
46159;DHT22;31888;44.512;26.104;2023-11-18T12:37:19;8.10;99.90
46159;DHT22;31888;44.512;26.104;2023-11-18T12:40:14;8.10;99.90
46159;DHT22;31888;44.512;26.104;2023-11-18T12:43:10;8.00;99.90
46159;DHT22;31888;44.512;26.104;2023-11-18T12:48:43;8.10;99.90
46159;DHT22;31888;44.512;26.104;2023-11-18T12:51:10;8.00;99.90
46159;DHT22;31888;44.512;26.104;2023-11-18T12:53:41;8.00;99.90
46159;DHT22;31888;44.512;26.104;2023-11-18T12:56:06;8.00;99.90
46159;DHT22;31888;44.512;26.104;2023-11-18T12:58:32;7.90;99.90
46159;DHT22;31888;44.512;26.104;2023-11-18T13:00:56;7.80;99.90
46159;DHT22;31888;44.512;26.104;2023-11-18T13:03:22;7.80;99.90
46159;DHT22;31888;44.512;26.104;2023-11-18T13:05:46;7.70;99.90
46159;DHT22;31888;44.512;26.104;2023-11-18T13:08:11;7.60;99.90
46159;DHT22;31888;44.512;26.104;2023-11-18T13:10:40;7.60;99.90
46159;DHT22;31888;44.512;26.104;2023-11-18T13:13:04;7.70;99.90
46159;DHT22;31888;44.512;26.104;2023-11-18T13:15:32;7.60;99.90
46159;DHT22;31888;44.512;26.104;2023-11-18T13:17:58;7.70;99.90
46159;DHT22;31888;44.512;26.104;2023-11-18T13:20:23;7.60;99.90
46159;DHT22;31888;44.512;26.104;2023-11-18T13:22:48;7.60;99.90
46159;DHT22;31888;44.512;26.104;2023-11-18T13:25:12;7.60;99.90
46159;DHT22;31888;44.512;26.104;2023-11-18T13:27:37;7.60;99.90
46159;DHT22;31888;44.512;26.104;2023-11-18T13:30:01;7.60;99.90
46159;DHT22;31888;44.512;26.104;2023-11-18T13:32:29;7.50;99.90
46159;DHT22;31888;44.512;26.104;2023-11-18T13:34:53;7.50;99.90
46159;DHT22;31888;44.512;26.104;2023-11-18T13:37:17;7.50;99.90
46159;DHT22;31888;44.512;26.104;2023-11-18T13:39:45;7.50;99.90
46159;DHT22;31888;44.512;26.104;2023-11-18T13:42:19;7.40;99.90
46159;DHT22;31888;44.512;26.104;2023-11-18T13:44:44;7.40;99.90
46159;DHT22;31888;44.512;26.104;2023-11-18T13:47:10;7.30;99.90
46159;DHT22;31888;44.512;26.104;2023-11-18T13:49:37;7.30;99.90
46159;DHT22;31888;44.512;26.104;2023-11-18T13:52:03;7.30;99.90
46159;DHT22;31888;44.512;26.104;2023-11-18T13:54:29;7.20;99.90
46159;DHT22;31888;44.512;26.104;2023-11-18T13:56:54;7.20;99.90
46159;DHT22;31888;44.512;26.104;2023-11-18T13:59:20;7.20;99.90
46159;DHT22;31888;44.512;26.104;2023-11-18T14:01:44;7.10;99.90
46159;DHT22;31888;44.512;26.104;2023-11-18T14:04:09;7.10;99.90
46159;DHT22;31888;44.512;26.104;2023-11-18T14:06:35;7.10;99.90
46159;DHT22;31888;44.512;26.104;2023-11-18T14:08:59;7.10;99.90
46159;DHT22;31888;44.512;26.104;2023-11-18T14:11:23;7.00;99.90
46159;DHT22;31888;44.512;26.104;2023-11-18T14:13:48;7.00;99.90
46159;DHT22;31888;44.512;26.104;2023-11-18T14:16:11;7.00;99.90
46159;DHT22;31888;44.512;26.104;2023-11-18T14:18:39;7.00;99.90
46159;DHT22;31888;44.512;26.104;2023-11-18T14:21:04;7.00;99.90
46159;DHT22;31888;44.512;26.104;2023-11-18T14:23:30;7.00;99.90
46159;DHT22;31888;44.512;26.104;2023-11-18T14:25:54;7.00;99.90
46159;DHT22;31888;44.512;26.104;2023-11-18T14:28:18;6.90;99.90
46159;DHT22;31888;44.512;26.104;2023-11-18T14:30:47;6.90;99.90
46159;DHT22;31888;44.512;26.104;2023-11-18T14:33:11;6.90;99.90
46159;DHT22;31888;44.512;26.104;2023-11-18T14:35:35;6.90;99.90
46159;DHT22;31888;44.512;26.104;2023-11-18T14:38:02;6.80;99.90
46159;DHT22;31888;44.512;26.104;2023-11-18T14:40:29;6.80;99.90
46159;DHT22;31888;44.512;26.104;2023-11-18T14:42:55;6.90;99.90
46159;DHT22;31888;44.512;26.104;2023-11-18T14:45:22;6.80;99.90
46159;DHT22;31888;44.512;26.104;2023-11-18T14:47:50;6.60;99.90
46159;DHT22;31888;44.512;26.104;2023-11-18T14:50:19;6.60;99.90
46159;DHT22;31888;44.512;26.104;2023-11-18T14:52:44;6.60;99.90
46159;DHT22;31888;44.512;26.104;2023-11-18T14:55:17;6.50;99.90
46159;DHT22;31888;44.512;26.104;2023-11-18T14:57:45;6.50;99.90
46159;DHT22;31888;44.512;26.104;2023-11-18T15:00:11;6.40;99.90
46159;DHT22;31888;44.512;26.104;2023-11-18T15:02:41;6.40;99.90
46159;DHT22;31888;44.512;26.104;2023-11-18T15:05:06;6.30;99.90
46159;DHT22;31888;44.512;26.104;2023-11-18T15:07:32;6.20;99.90
46159;DHT22;31888;44.512;26.104;2023-11-18T15:09:56;6.10;99.90
46159;DHT22;31888;44.512;26.104;2023-11-18T15:12:25;6.00;99.90
46159;DHT22;31888;44.512;26.104;2023-11-18T15:14:54;6.00;99.90
46159;DHT22;31888;44.512;26.104;2023-11-18T15:17:18;6.00;99.90
46159;DHT22;31888;44.512;26.104;2023-11-18T15:19:41;5.90;99.90
46159;DHT22;31888;44.512;26.104;2023-11-18T15:22:05;5.80;99.90
46159;DHT22;31888;44.512;26.104;2023-11-18T15:24:29;5.60;99.90
46159;DHT22;31888;44.512;26.104;2023-11-18T15:26:54;5.60;99.90
46159;DHT22;31888;44.512;26.104;2023-11-18T15:29:18;5.50;99.90